Time;durP1;ratioP1;P1;durP2;ratioP2;P2;SDS_P1;SDS_P2;PMS_P1;PMS_P2;Temp;Humidity;BMP_temperature;BMP_pressure;BME280_temperature;BME280_humidity;BME280_pressure;Samples;Min_cycle;Max_cycle;Signal;HPM_P1;HPM_P2
2023/10/20 00:00:32;;;;;;;0.40;0.40;;;;;;;13.79;49.57;100450.78;5009396;28;20905;-80
2023/10/20 00:02:57;;;;;;;0.63;0.63;;;;;;;13.91;49.25;100445.72;5016998;28;20415;-82
2023/10/20 00:05:26;;;;;;;0.45;0.45;;;;;;;14.00;48.64;100428.53;5047076;28;20384;-84
2023/10/20 00:07:53;;;;;;;0.55;0.55;;;;;;;13.84;49.26;100435.03;5047313;28;20380;-83
2023/10/20 00:10:20;;;;;;;0.30;0.30;;;;;;;13.63;49.97;100429.81;5048142;28;20393;-79
2023/10/20 00:12:45;;;;;;;0.30;0.30;;;;;;;13.80;49.32;100427.66;5029857;28;20721;-83
2023/10/20 00:15:13;;;;;;;0.20;0.20;;;;;;;13.88;49.00;100425.66;5029104;28;20385;-80
2023/10/20 00:17:40;;;;;;;0.40;0.30;;;;;;;13.86;48.98;100434.84;5029486;28;20396;-79
2023/10/20 00:20:06;;;;;;;0.20;0.20;;;;;;;13.75;49.20;100433.56;5028990;28;20409;-83
2023/10/20 00:22:35;;;;;;;0.40;0.40;;;;;;;13.68;49.41;100435.38;5047022;28;20416;-83
2023/10/20 00:25:03;;;;;;;0.40;0.40;;;;;;;13.66;49.38;100416.09;5047334;28;20879;-80
2023/10/20 00:27:29;;;;;;;4.03;0.93;;;;;;;13.54;49.72;100419.34;5029088;28;20400;-81
2023/10/20 00:29:55;;;;;;;0.50;0.50;;;;;;;13.36;50.18;100419.00;5029492;28;20420;-80
2023/10/20 00:32:20;;;;;;;0.30;0.30;;;;;;;13.26;50.81;100415.84;5046824;28;20396;-80
2023/10/20 00:34:46;;;;;;;1.08;0.77;;;;;;;13.22;50.49;100409.25;5028504;28;20734;-84
2023/10/20 00:37:12;;;;;;;0.40;0.40;;;;;;;13.26;50.69;100415.84;5028187;28;20479;-83
2023/10/20 00:39:37;;;;;;;0.45;0.45;;;;;;;13.11;51.13;100418.63;5028734;28;20396;-80
2023/10/20 00:42:03;;;;;;;0.52;0.52;;;;;;;13.01;51.61;100405.66;5046701;28;20407;-80
2023/10/20 00:44:29;;;;;;;0.45;0.45;;;;;;;12.87;51.71;100406.56;5028323;28;20388;-83
2023/10/20 00:46:55;;;;;;;0.37;0.37;;;;;;;12.83;51.67;100406.13;5028035;28;20408;-79
2023/10/20 00:49:21;;;;;;;1.53;0.67;;;;;;;12.93;51.53;100408.47;5046223;28;20812;-82
2023/10/20 00:51:47;;;;;;;0.70;0.70;;;;;;;12.58;52.48;100411.00;5066568;28;20388;-84
2023/10/20 00:54:14;;;;;;;0.45;0.40;;;;;;;12.52;53.05;100417.91;5032085;28;20461;-81
2023/10/20 00:56:44;;;;;;;0.30;0.30;;;;;;;12.55;52.96;100398.09;5028493;28;20380;-80
2023/10/20 00:59:10;;;;;;;0.60;0.60;;;;;;;12.40;53.00;100390.19;5045562;28;20412;-80
2023/10/20 01:01:36;;;;;;;0.40;0.40;;;;;;;12.57;52.48;100396.09;5045394;28;20506;-81
2023/10/20 01:04:02;;;;;;;0.90;0.63;;;;;;;12.74;51.91;100391.31;5027633;28;20400;-84
2023/10/20 01:06:29;;;;;;;1.30;0.80;;;;;;;12.81;51.61;100384.22;5027590;28;20389;-80
2023/10/20 01:08:58;;;;;;;0.40;0.40;;;;;;;12.97;50.88;100377.78;5029465;28;20885;-83
2023/10/20 01:11:24;;;;;;;0.40;0.40;;;;;;;13.05;50.69;100388.25;5049619;28;20381;-81
2023/10/20 01:13:50;;;;;;;0.30;0.30;;;;;;;12.97;50.72;100378.59;5031307;28;20384;-79
2023/10/20 01:16:16;;;;;;;0.50;0.50;;;;;;;12.90;51.19;100375.06;5031575;28;20439;-84
2023/10/20 01:18:43;;;;;;;0.93;0.80;;;;;;;12.86;51.16;100375.66;5049072;28;20389;-79
2023/10/20 01:21:09;;;;;;;0.50;0.50;;;;;;;12.94;51.10;100378.97;5048881;28;20404;-79
2023/10/20 01:23:35;;;;;;;0.30;0.30;;;;;;;12.91;50.97;100365.25;5031475;28;20861;-84
2023/10/20 01:26:02;;;;;;;0.30;0.30;;;;;;;12.92;50.92;100375.69;5031327;28;20442;-80
2023/10/20 01:28:27;;;;;;;0.30;0.30;;;;;;;12.99;50.85;100386.41;5031199;28;20763;-83
2023/10/20 01:30:56;;;;;;;0.70;0.52;;;;;;;12.94;50.77;100378.16;5031416;28;20926;-80
2023/10/20 01:33:21;;;;;;;0.50;0.38;;;;;;;12.82;51.08;100386.69;5031453;28;20392;-81
2023/10/20 01:35:47;;;;;;;0.55;0.40;;;;;;;12.72;51.39;100372.88;5031814;28;20727;-81
2023/10/20 01:38:12;;;;;;;1.70;0.87;;;;;;;12.59;51.83;100391.41;5049383;28;20447;-83
2023/10/20 01:40:38;;;;;;;1.13;1.03;;;;;;;12.28;53.17;100386.38;5049960;28;20413;-85
2023/10/20 01:43:03;;;;;;;0.70;0.68;;;;;;;12.19;53.44;100399.81;5030822;28;20415;-81
2023/10/20 01:45:29;;;;;;;1.87;1.20;;;;;;;12.08;54.13;100399.47;5034562;28;20402;-80
2023/10/20 01:47:55;;;;;;;1.17;0.95;;;;;;;12.33;53.24;100398.09;5035693;28;20504;-82
2023/10/20 01:50:24;;;;;;;0.70;0.60;;;;;;;12.13;53.69;100402.38;5049181;28;20814;-84
2023/10/20 01:52:49;;;;;;;0.90;0.63;;;;;;;12.18;53.73;100410.63;5031310;28;20415;-84
2023/10/20 01:55:15;;;;;;;0.77;0.60;;;;;;;12.15;53.46;100398.53;5031217;28;20393;-80
2023/10/20 01:57:41;;;;;;;0.90;0.50;;;;;;;12.17;53.54;100388.56;5031402;28;20380;-83
2023/10/20 02:00:13;;;;;;;0.77;0.68;;;;;;;12.23;53.43;100392.28;5031165;28;20838;-82
2023/10/20 02:02:40;;;;;;;0.88;0.55;;;;;;;12.28;53.15;100395.19;5049024;28;20495;-84
2023/10/20 02:05:09;;;;;;;0.90;0.80;;;;;;;12.30;53.01;100387.84;5030740;28;20400;-80
2023/10/20 02:07:35;;;;;;;0.43;0.40;;;;;;;12.31;52.93;100407.28;5035562;28;20380;-84
2023/10/20 02:10:01;;;;;;;1.33;0.98;;;;;;;12.28;53.23;100405.00;5031172;28;20391;-81
2023/10/20 02:12:27;;;;;;;1.80;1.70;;;;;;;12.23;53.40;100400.25;5048757;28;20393;-81
2023/10/20 02:14:53;;;;;;;0.70;0.50;;;;;;;12.33;52.72;100402.59;5011255;28;20781;-82
2023/10/20 02:17:19;;;;;;;0.93;0.63;;;;;;;12.31;53.04;100404.63;5011031;28;20893;-82
2023/10/20 02:19:45;;;;;;;1.00;0.88;;;;;;;12.36;52.90;100400.38;5011210;28;20420;-80
2023/10/20 02:22:12;;;;;;;1.02;0.60;;;;;;;12.31;53.07;100391.34;5014626;28;20429;-82
2023/10/20 02:24:37;;;;;;;1.08;0.57;;;;;;;12.33;52.86;100379.47;5007403;28;20416;-80
2023/10/20 02:27:03;;;;;;;1.40;0.90;;;;;;;12.45;52.37;100381.66;5007058;28;20435;-84
2023/10/20 02:29:28;;;;;;;1.10;0.70;;;;;;;12.59;52.01;100372.78;5009062;28;20454;-84
2023/10/20 02:31:54;;;;;;;1.42;1.00;;;;;;;12.66;51.78;100372.81;5005828;28;20435;-80
2023/10/20 02:34:21;;;;;;;0.90;0.50;;;;;;;12.68;51.59;100368.16;5009032;28;20396;-84
2023/10/20 02:36:49;;;;;;;1.00;0.60;;;;;;;12.68;51.42;100363.66;4990979;28;20400;-80
2023/10/20 02:39:15;;;;;;;0.95;0.75;;;;;;;12.61;51.75;100387.53;5007064;28;20429;-81
2023/10/20 02:41:40;;;;;;;0.85;0.50;;;;;;;12.60;51.65;100366.44;5007291;28;20440;-82
2023/10/20 02:44:07;;;;;;;0.95;0.85;;;;;;;12.50;51.80;100353.47;5008477;28;20380;-82
2023/10/20 02:46:32;;;;;;;0.60;0.50;;;;;;;12.57;51.66;100358.88;5008133;28;20407;-85
2023/10/20 02:48:58;;;;;;;0.83;0.70;;;;;;;12.58;51.52;100352.53;5008851;28;20380;-83
2023/10/20 02:51:24;;;;;;;0.65;0.40;;;;;;;12.66;51.56;100352.41;5008081;28;20428;-86
2023/10/20 02:53:49;;;;;;;0.30;0.30;;;;;;;12.70;51.25;100336.88;5007433;28;20395;-79
2023/10/20 02:56:17;;;;;;;0.40;0.40;;;;;;;12.68;51.07;100336.25;5018315;28;20422;-80
2023/10/20 02:58:44;;;;;;;0.40;0.40;;;;;;;12.62;51.34;100332.50;5017829;28;20436;-82
2023/10/20 03:01:17;;;;;;;0.50;0.50;;;;;;;12.51;51.96;100341.81;5007076;28;20412;-79
2023/10/20 03:03:43;;;;;;;0.20;0.20;;;;;;;12.58;51.52;100333.91;5007471;28;20869;-84
2023/10/20 03:06:09;;;;;;;0.30;0.30;;;;;;;12.65;51.18;100332.13;5002723;28;20937;-78
2023/10/20 03:08:37;;;;;;;0.30;0.30;;;;;;;12.70;51.21;100343.00;5003701;28;20449;-80
2023/10/20 03:11:04;;;;;;;0.30;0.30;;;;;;;12.58;51.26;100348.00;5006710;28;20417;-83
2023/10/20 03:13:30;;;;;;;0.60;0.60;;;;;;;12.55;51.81;100363.53;5011840;28;20470;-81
2023/10/20 03:15:56;;;;;;;0.20;0.20;;;;;;;12.42;52.00;100364.25;5013863;28;20395;-81
2023/10/20 03:18:23;;;;;;;0.70;0.70;;;;;;;12.28;52.59;100373.94;5010640;28;20384;-78
2023/10/20 03:20:49;;;;;;;0.60;0.60;;;;;;;12.02;53.26;100362.00;5007289;28;20395;-80
2023/10/20 03:23:16;;;;;;;0.80;0.80;;;;;;;11.97;53.40;100358.28;5009864;28;20406;-81
2023/10/20 03:25:42;;;;;;;0.30;0.30;;;;;;;11.90;53.65;100374.13;5011944;28;20918;-82
2023/10/20 03:28:10;;;;;;;0.32;0.32;;;;;;;11.64;53.93;100364.00;5028868;28;20391;-82
2023/10/20 03:30:43;;;;;;;0.52;0.52;;;;;;;11.79;53.98;100361.31;5026747;28;20401;-82
2023/10/20 03:33:16;;;;;;;0.70;0.70;;;;;;;11.89;53.44;100367.16;5027174;28;20434;-83
2023/10/20 03:35:43;;;;;;;1.00;0.40;;;;;;;11.90;53.18;100379.44;5028780;28;20885;-81
2023/10/20 03:38:09;;;;;;;1.33;0.85;;;;;;;11.81;53.53;100376.06;5026434;28;20430;-83
2023/10/20 03:40:40;;;;;;;1.05;0.70;;;;;;;11.79;53.52;100372.78;5027740;28;20833;-83
2023/10/20 03:43:08;;;;;;;1.08;0.60;;;;;;;11.81;53.21;100362.78;5010890;28;20417;-84
2023/10/20 03:45:42;;;;;;;0.60;0.60;;;;;;;11.98;52.81;100360.75;5020837;28;20919;-83
2023/10/20 03:48:14;;;;;;;0.63;0.63;;;;;;;12.09;52.49;100367.41;4986132;28;21077;-81
2023/10/20 03:50:46;;;;;;;1.10;0.50;;;;;;;12.18;52.12;100358.28;5008073;28;20423;-83
2023/10/20 03:53:18;;;;;;;0.52;0.32;;;;;;;12.29;52.12;100361.47;5025572;28;20412;-82
2023/10/20 03:55:45;;;;;;;0.30;0.30;;;;;;;12.30;51.97;100355.13;5018981;28;20409;-83
2023/10/20 03:58:11;;;;;;;0.50;0.50;;;;;;;12.31;51.75;100356.78;5004111;28;20397;-85
2023/10/20 04:00:41;;;;;;;0.20;0.20;;;;;;;12.37;51.82;100358.66;4993293;28;20421;-87
2023/10/20 04:03:08;;;;;;;0.50;0.50;;;;;;;12.43;51.51;100356.06;4999706;28;20440;-83
2023/10/20 04:05:33;;;;;;;0.40;0.40;;;;;;;12.53;51.37;100354.94;5004276;28;20842;-85
2023/10/20 04:07:59;;;;;;;0.40;0.40;;;;;;;12.41;51.38;100344.81;4998768;28;20547;-89
2023/10/20 04:10:25;;;;;;;0.77;0.77;;;;;;;12.45;51.19;100355.88;4998853;28;20475;-86
2023/10/20 04:12:50;;;;;;;0.43;0.43;;;;;;;12.38;51.56;100341.72;4996792;28;20422;-86
2023/10/20 04:15:19;;;;;;;0.50;0.50;;;;;;;12.36;51.59;100341.09;5003801;28;20423;-86
2023/10/20 04:17:51;;;;;;;1.08;1.05;;;;;;;12.40;51.56;100339.69;5008203;28;20461;-87
2023/10/20 04:20:18;;;;;;;0.35;0.35;;;;;;;12.48;51.37;100349.34;5007821;28;20480;-82
2023/10/20 04:22:49;;;;;;;1.52;1.42;;;;;;;12.54;51.26;100348.59;5026729;28;20430;-86
2023/10/20 04:25:19;;;;;;;0.30;0.30;;;;;;;12.56;51.01;100341.25;5032320;28;20405;-85
2023/10/20 04:27:57;;;;;;;0.47;0.47;;;;;;;12.61;51.10;100352.97;5037168;28;20406;-84
2023/10/20 05:02:41;;;;;;;0.30;0.30;;;;;;;12.51;51.77;100338.34;5050019;28;20396;-83
2023/10/20 05:08:04;;;;;;;0.47;0.47;;;;;;;12.50;51.68;100334.88;5033937;28;20754;-83
2023/10/20 05:10:35;;;;;;;1.10;0.80;;;;;;;12.36;51.88;100341.91;5032756;28;20394;-84
2023/10/20 05:13:01;;;;;;;0.90;0.43;;;;;;;12.29;51.94;100350.84;5017566;28;20409;-83
2023/10/20 05:15:38;;;;;;;0.33;0.33;;;;;;;12.31;52.14;100356.78;5034710;28;20753;-83
2023/10/20 05:18:05;;;;;;;0.40;0.40;;;;;;;12.45;51.83;100331.16;5032518;28;20386;-82
2023/10/20 05:20:41;;;;;;;0.80;0.65;;;;;;;12.31;52.17;100352.28;5032434;28;20426;-83
2023/10/20 05:23:07;;;;;;;0.37;0.37;;;;;;;12.39;52.05;100356.66;5017077;28;20493;-84
2023/10/20 05:25:38;;;;;;;0.38;0.38;;;;;;;12.39;51.98;100372.63;5014340;28;20385;-83
2023/10/20 05:28:07;;;;;;;0.30;0.30;;;;;;;12.19;52.50;100357.28;4998463;28;20395;-84
2023/10/20 05:30:42;;;;;;;0.50;0.50;;;;;;;12.12;52.90;100375.00;5013812;28;20384;-83
2023/10/20 05:33:17;;;;;;;0.50;0.50;;;;;;;11.93;53.52;100364.97;5015648;28;20912;-82
2023/10/20 05:35:51;;;;;;;0.50;0.50;;;;;;;12.07;53.03;100380.06;5013607;28;20388;-83
2023/10/20 05:38:24;;;;;;;0.35;0.35;;;;;;;12.07;53.36;100365.97;5012384;28;20388;-81
2023/10/20 05:41:00;;;;;;;0.98;0.70;;;;;;;12.23;52.97;100385.13;5014666;28;20388;-82
2023/10/20 05:43:26;;;;;;;0.20;0.20;;;;;;;12.27;52.76;100379.44;5013603;28;20388;-84
2023/10/20 05:46:05;;;;;;;0.90;0.90;;;;;;;12.24;53.00;100391.25;5014353;28;20460;-83
2023/10/20 05:48:33;;;;;;;0.22;0.22;;;;;;;12.30;52.95;100393.19;5015614;28;20461;-84
2023/10/20 05:51:02;;;;;;;0.40;0.30;;;;;;;12.49;52.38;100377.59;5013499;28;20475;-82
2023/10/20 05:53:31;;;;;;;0.40;0.22;;;;;;;12.65;51.98;100376.50;5014561;28;20392;-82
2023/10/20 05:55:58;;;;;;;0.20;0.20;;;;;;;12.75;51.86;100377.03;5014421;28;20388;-82
2023/10/20 05:58:28;;;;;;;0.20;0.20;;;;;;;12.87;51.72;100378.09;5013732;28;20384;-81
2023/10/20 06:01:13;;;;;;;0.50;0.50;;;;;;;13.00;51.22;100375.56;5014050;28;20391;-81
2023/10/20 06:03:45;;;;;;;0.20;0.20;;;;;;;13.11;51.38;100386.69;5015739;28;20412;-82
2023/10/20 06:06:14;;;;;;;0.30;0.30;;;;;;;13.08;51.33;100376.44;4998660;28;20906;-85
2023/10/20 06:08:46;;;;;;;0.30;0.30;;;;;;;13.13;51.45;100379.34;5002170;28;20384;-83
2023/10/20 06:11:21;;;;;;;0.30;0.30;;;;;;;13.20;51.39;100385.53;5015660;28;20400;-85
2023/10/20 06:13:47;;;;;;;0.40;0.40;;;;;;;13.17;51.45;100394.69;5016394;28;20415;-85
2023/10/20 06:16:24;;;;;;;0.40;0.30;;;;;;;13.16;51.65;100392.22;5013866;28;20395;-83
2023/10/20 06:18:56;;;;;;;2.00;1.30;;;;;;;13.06;52.13;100389.94;5014635;28;20403;-83
2023/10/20 06:21:29;;;;;;;0.40;0.40;;;;;;;13.15;51.77;100386.09;5018004;28;20412;-84
2023/10/20 06:23:57;;;;;;;0.25;0.25;;;;;;;13.31;51.41;100389.50;5054105;28;20368;-83
2023/10/20 06:26:30;;;;;;;0.40;0.40;;;;;;;13.44;51.18;100383.44;5053454;28;20392;-85
2023/10/20 06:29:01;;;;;;;0.90;0.90;;;;;;;13.51;51.34;100386.94;5039965;28;20820;-84
2023/10/20 06:34:19;;;;;;;0.60;0.40;;;;;;;13.54;51.19;100375.88;5054161;28;20450;-82
2023/10/20 06:36:48;;;;;;;0.52;0.50;;;;;;;13.63;50.76;100385.38;5036716;28;20461;-83
2023/10/20 06:39:18;;;;;;;0.52;0.52;;;;;;;13.62;50.96;100390.91;5035472;28;20400;-82
2023/10/20 06:41:57;;;;;;;0.28;0.28;;;;;;;13.68;50.84;100398.09;5053783;28;20397;-83
2023/10/20 06:44:28;;;;;;;0.28;0.28;;;;;;;13.79;50.76;100378.84;5053415;28;20381;-83
2023/10/20 06:46:59;;;;;;;1.00;0.90;;;;;;;13.89;50.57;100389.97;5017846;28;20385;-83
2023/10/20 06:49:28;;;;;;;0.30;0.30;;;;;;;13.84;50.55;100380.94;5019018;28;20510;-83
2023/10/20 06:51:56;;;;;;;0.80;0.80;;;;;;;13.99;50.66;100380.78;5034256;28;20388;-83
2023/10/20 06:54:27;;;;;;;1.00;0.90;;;;;;;14.07;50.55;100378.75;5052365;28;20803;-82
2023/10/20 06:56:59;;;;;;;0.70;0.70;;;;;;;14.14;50.34;100381.44;5052128;28;20799;-82
2023/10/20 06:59:31;;;;;;;0.28;0.28;;;;;;;14.29;50.03;100402.59;5034448;28;20380;-83
2023/10/20 07:02:00;;;;;;;1.30;0.50;;;;;;;14.32;50.20;100380.88;5035541;28;20787;-84
2023/10/20 07:04:31;;;;;;;0.63;0.60;;;;;;;14.51;50.10;100385.41;5020731;28;20806;-83
2023/10/20 07:06:58;;;;;;;0.55;0.55;;;;;;;14.53;49.67;100394.03;5051791;28;20887;-84
2023/10/20 07:09:23;;;;;;;0.60;0.60;;;;;;;14.61;49.92;100401.03;5052384;28;20523;-83
2023/10/20 07:12:03;;;;;;;0.40;0.40;;;;;;;14.70;49.58;100383.78;5035232;28;20392;-83
2023/10/20 07:14:32;;;;;;;0.90;0.50;;;;;;;14.85;49.46;100398.78;5036458;28;20384;-83
2023/10/20 07:17:03;;;;;;;0.33;0.33;;;;;;;15.00;49.00;100394.06;5032216;28;20422;-81
2023/10/20 07:19:39;;;;;;;0.70;0.70;;;;;;;15.19;49.16;100420.94;5020030;28;20455;-82
2023/10/20 07:22:04;;;;;;;2.53;0.88;;;;;;;15.32;48.74;100399.53;5010586;28;20439;-84
2023/10/20 07:24:39;;;;;;;0.50;0.50;;;;;;;15.46;48.76;100401.13;4994362;28;20392;-82
2023/10/20 07:27:16;;;;;;;0.28;0.28;;;;;;;15.64;48.40;100402.31;5011304;28;20907;-82
2023/10/20 07:29:57;;;;;;;0.50;0.50;;;;;;;15.81;48.09;100402.69;5008802;28;20944;-84
2023/10/20 07:32:26;;;;;;;0.50;0.50;;;;;;;15.88;47.30;100403.47;5009250;28;20450;-83
2023/10/20 07:35:06;;;;;;;0.50;0.50;;;;;;;15.87;47.62;100399.19;4996528;28;20475;-82
2023/10/20 07:37:38;;;;;;;0.40;0.40;;;;;;;16.03;46.87;100392.53;4997860;28;20399;-82
2023/10/20 07:40:10;;;;;;;0.33;0.33;;;;;;;16.13;47.21;100395.53;4995965;28;20392;-83
2023/10/20 07:42:48;;;;;;;0.30;0.30;;;;;;;16.34;46.91;100404.28;5011708;28;20416;-82
2023/10/20 07:45:18;;;;;;;0.30;0.30;;;;;;;16.53;46.76;100395.31;5010265;28;20391;-83
2023/10/20 07:47:55;;;;;;;0.40;0.40;;;;;;;16.64;46.43;100388.44;5037882;28;20381;-82
2023/10/20 07:50:31;;;;;;;0.32;0.32;;;;;;;16.75;46.39;100389.59;5033138;28;20381;-80
2023/10/20 07:53:08;;;;;;;0.20;0.20;;;;;;;16.87;46.15;100384.34;5017478;28;20760;-81
2023/10/20 07:55:40;;;;;;;0.20;0.20;;;;;;;17.00;46.08;100397.63;5051171;28;20392;-81
2023/10/20 07:58:08;;;;;;;0.43;0.43;;;;;;;17.05;45.88;100387.09;5052001;28;20385;-84
2023/10/20 08:00:47;;;;;;;0.55;0.35;;;;;;;17.18;45.97;100378.91;5033807;28;20412;-86
2023/10/20 08:03:14;;;;;;;0.43;0.40;;;;;;;17.20;45.39;100379.50;5034641;28;20447;-83
2023/10/20 08:05:52;;;;;;;0.40;0.20;;;;;;;17.34;45.47;100390.91;5051799;28;20436;-83
2023/10/20 08:08:25;;;;;;;0.90;0.85;;;;;;;17.42;44.95;100381.75;5033438;28;20825;-83
2023/10/20 08:10:58;;;;;;;0.20;0.20;;;;;;;17.48;45.25;100369.31;5052155;28;20412;-85
2023/10/20 08:13:25;;;;;;;0.40;0.38;;;;;;;17.54;44.97;100366.56;5033400;28;20385;-83
2023/10/20 08:15:50;;;;;;;0.70;0.70;;;;;;;17.67;44.55;100364.75;5037404;28;20399;-83
2023/10/20 08:18:19;;;;;;;1.20;1.10;;;;;;;17.76;44.67;100364.22;5035106;28;20442;-84
2023/10/20 08:20:46;;;;;;;0.50;0.50;;;;;;;17.77;44.43;100370.38;5035364;28;20380;-83
2023/10/20 08:23:16;;;;;;;0.20;0.20;;;;;;;17.81;44.15;100368.06;5053769;28;20413;-81
2023/10/20 08:25:46;;;;;;;0.20;0.20;;;;;;;17.98;44.40;100369.13;5053277;28;20397;-85
2023/10/20 08:28:12;;;;;;;0.40;0.40;;;;;;;18.10;44.00;100372.66;5036369;28;20399;-83
2023/10/20 08:30:40;;;;;;;0.57;0.50;;;;;;;18.14;44.05;100356.94;5033990;28;20487;-83
2023/10/20 08:33:10;;;;;;;0.70;0.52;;;;;;;18.21;43.88;100348.81;5053593;28;20385;-81
2023/10/20 08:35:37;;;;;;;0.13;0.13;;;;;;;18.32;43.74;100356.06;5031260;28;20491;-83
2023/10/20 08:38:03;;;;;;;0.90;0.80;;;;;;;18.33;43.34;100344.28;5051503;28;20376;-83
2023/10/20 08:40:48;;;;;;;;;;;;;;;;;;;;;
2023/10/20 08:43:18;;;;;;;0.80;0.50;;;;;;;18.51;42.74;100329.94;5057063;28;20476;-84
2023/10/20 08:45:47;;;;;;;0.65;0.50;;;;;;;18.48;42.82;100343.84;5041497;28;20405;-84
2023/10/20 08:48:17;;;;;;;0.30;0.30;;;;;;;18.54;42.25;100321.41;5035973;28;20385;-85
2023/10/20 08:50:53;;;;;;;0.45;0.45;;;;;;;18.54;42.01;100316.06;5051466;28;20442;-84
2023/10/20 08:53:21;;;;;;;0.20;0.20;;;;;;;18.47;41.73;100321.53;4994267;28;20450;-84
2023/10/20 08:55:49;;;;;;;0.20;0.20;;;;;;;18.57;41.67;100318.28;4993093;28;20400;-84
2023/10/20 08:58:18;;;;;;;0.60;0.30;;;;;;;18.63;41.16;100314.66;5011872;28;20395;-86
2023/10/20 09:00:49;;;;;;;0.23;0.23;;;;;;;18.72;41.09;100317.81;5009308;28;20403;-85
2023/10/20 09:03:25;;;;;;;0.40;0.40;;;;;;;18.78;41.14;100316.06;4993913;28;20412;-84
2023/10/20 09:05:50;;;;;;;0.27;0.27;;;;;;;18.88;40.73;100309.06;4995118;28;20446;-84
2023/10/20 09:08:27;;;;;;;;;;;;;;;;;;;;;
2023/10/20 09:10:58;;;;;;;0.52;0.30;;;;;;;19.03;40.72;100303.25;5004942;28;20396;-84
2023/10/20 09:13:35;;;;;;;0.60;0.40;;;;;;;19.16;40.50;100293.25;4994683;28;20846;-84
2023/10/20 09:16:11;;;;;;;0.90;0.70;;;;;;;19.20;40.81;100284.50;5025578;28;20590;-84
2023/10/20 09:18:43;;;;;;;0.10;0.10;;;;;;;19.30;40.66;100281.19;4995316;28;20957;-84
2023/10/20 09:21:20;;;;;;;0.20;0.20;;;;;;;19.40;40.03;100292.16;5011663;28;20396;-84
2023/10/20 09:23:59;;;;;;;0.38;0.38;;;;;;;19.52;39.92;100293.97;4994693;28;20428;-85
2023/10/20 09:26:30;;;;;;;0.60;0.60;;;;;;;19.48;39.31;100297.16;4993351;28;20396;-85
2023/10/20 09:28:56;;;;;;;0.60;0.60;;;;;;;19.47;39.47;100292.03;5012056;28;20498;-85
2023/10/20 09:31:24;;;;;;;0.50;0.50;;;;;;;19.68;39.31;100285.16;5011310;28;20799;-86
2023/10/20 09:33:55;;;;;;;0.30;0.30;;;;;;;19.83;39.67;100279.28;5000988;28;20452;-84
2023/10/20 09:36:25;;;;;;;0.20;0.20;;;;;;;19.81;40.03;100289.47;5016786;28;20461;-86
2023/10/20 09:38:55;;;;;;;0.90;0.60;;;;;;;19.95;39.73;100298.03;5017260;28;20454;-86
2023/10/20 09:41:27;;;;;;;0.45;0.40;;;;;;;19.98;39.69;100284.09;5014293;28;20442;-85
2023/10/20 09:44:06;;;;;;;0.40;0.40;;;;;;;20.21;39.73;100285.84;5013964;28;21061;-81
2023/10/20 09:46:54;;;;;;;0.20;0.20;;;;;;;20.29;39.38;100284.59;4996964;28;20407;-82
2023/10/20 09:49:27;;;;;;;0.30;0.30;;;;;;;20.43;39.14;100273.25;5015838;28;20430;-86
2023/10/20 09:51:57;;;;;;;0.17;0.17;;;;;;;20.44;39.34;100276.78;5017013;28;20441;-86
2023/10/20 09:54:33;;;;;;;3.97;0.95;;;;;;;20.60;39.31;100278.63;4975090;28;20407;-84
2023/10/20 09:57:00;;;;;;;0.50;0.50;;;;;;;20.74;39.31;100270.22;4957909;28;20486;-83
2023/10/20 09:59:30;;;;;;;0.20;0.20;;;;;;;20.81;38.88;100260.09;4960409;28;20403;-83
2023/10/20 10:02:02;;;;;;;0.68;0.68;;;;;;;20.91;38.18;100254.84;4975829;28;20480;-83
2023/10/20 10:04:36;;;;;;;0.50;0.50;;;;;;;21.00;38.34;100250.63;4958830;28;20395;-83
2023/10/20 10:07:07;;;;;;;0.20;0.20;;;;;;;21.08;37.96;100248.56;4977022;28;20421;-83
2023/10/20 10:09:40;;;;;;;0.25;0.25;;;;;;;21.11;37.99;100248.06;4959825;28;20395;-86
2023/10/20 10:12:17;;;;;;;0.10;0.10;;;;;;;21.28;37.77;100238.00;4973168;28;20387;-83
2023/10/20 10:14:57;;;;;;;0.10;0.10;;;;;;;21.28;37.99;100229.91;4961502;28;20427;-82
2023/10/20 10:17:23;;;;;;;1.77;0.40;;;;;;;21.37;37.39;100231.13;4957875;28;20402;-84
2023/10/20 10:19:53;;;;;;;1.00;1.00;;;;;;;21.37;37.44;100230.28;4959126;28;20404;-83
2023/10/20 10:22:29;;;;;;;0.20;0.20;;;;;;;21.42;37.57;100221.47;4947066;28;20439;-84
2023/10/20 10:25:06;;;;;;;0.30;0.30;;;;;;;21.52;37.71;100219.72;4957463;28;20535;-84
2023/10/20 10:27:34;;;;;;;0.22;0.22;;;;;;;21.61;37.76;100216.53;4954246;28;20403;-82
2023/10/20 10:30:06;;;;;;;0.40;0.40;;;;;;;21.64;37.76;100207.94;4956883;28;20433;-83
2023/10/20 10:32:33;;;;;;;1.10;1.00;;;;;;;21.80;37.69;100214.28;4958508;28;20434;-84
2023/10/20 10:35:04;;;;;;;0.40;0.40;;;;;;;21.70;37.87;100209.63;4973052;28;20797;-83
2023/10/20 10:37:35;;;;;;;0.57;0.57;;;;;;;21.77;37.49;100204.84;4957150;28;20980;-83
2023/10/20 10:40:14;;;;;;;0.35;0.35;;;;;;;21.80;36.55;100214.28;4956983;28;20941;-84
2023/10/20 10:42:41;;;;;;;1.38;0.73;;;;;;;21.93;36.52;100203.88;4957101;28;20411;-83
2023/10/20 10:45:14;;;;;;;0.30;0.30;;;;;;;22.05;35.89;100202.88;4973081;28;20415;-83
2023/10/20 10:47:42;;;;;;;0.50;0.40;;;;;;;22.01;35.70;100194.50;4972048;28;20547;-82
2023/10/20 10:50:08;;;;;;;0.40;0.32;;;;;;;22.11;35.46;100199.13;4960073;28;20403;-82
2023/10/20 10:52:34;;;;;;;0.90;0.70;;;;;;;22.12;35.34;100198.06;5013969;28;20404;-85
2023/10/20 10:55:03;;;;;;;1.00;0.22;;;;;;;22.22;35.33;100186.53;5012685;28;20491;-84
2023/10/20 10:57:35;;;;;;;0.17;0.17;;;;;;;22.31;35.13;100183.13;5013820;28;20380;-82
2023/10/20 11:00:06;;;;;;;0.17;0.17;;;;;;;22.45;35.30;100185.34;5012533;28;20400;-83
2023/10/20 11:02:32;;;;;;;0.50;0.30;;;;;;;22.50;35.06;100171.88;4997035;28;20419;-83
2023/10/20 11:04:59;;;;;;;0.40;0.40;;;;;;;22.56;35.31;100176.22;5013548;28;20396;-82
2023/10/20 11:07:25;;;;;;;0.63;0.63;;;;;;;22.55;35.29;100181.91;5012765;28;20392;-83
2023/10/20 11:09:55;;;;;;;0.30;0.30;;;;;;;22.48;35.40;100177.53;5014828;28;20391;-83
2023/10/20 11:12:22;;;;;;;0.50;0.50;;;;;;;22.42;34.62;100175.06;5015325;28;20392;-82
2023/10/20 11:14:50;;;;;;;1.00;0.90;;;;;;;22.44;34.94;100181.03;5012648;28;20483;-83
2023/10/20 11:17:19;;;;;;;0.80;0.70;;;;;;;22.43;34.57;100174.78;5013184;28;20530;-83
2023/10/20 11:19:47;;;;;;;0.43;0.38;;;;;;;22.46;34.75;100174.28;5012604;28;20396;-82
2023/10/20 11:22:17;;;;;;;0.68;0.65;;;;;;;22.58;34.69;100174.09;5030788;28;20416;-82
2023/10/20 11:24:54;;;;;;;0.60;0.60;;;;;;;22.63;34.85;100174.06;5015456;28;20395;-83
2023/10/20 11:27:23;;;;;;;0.30;0.28;;;;;;;22.68;34.53;100168.69;5016312;28;20384;-84
2023/10/20 11:29:50;;;;;;;0.40;0.40;;;;;;;22.74;34.37;100166.03;5013037;28;20422;-83
2023/10/20 11:32:19;;;;;;;0.75;0.75;;;;;;;22.56;34.19;100164.59;5015021;28;20403;-82
2023/10/20 11:34:47;;;;;;;0.40;0.40;;;;;;;22.61;34.36;100161.91;5017296;28;20824;-83
2023/10/20 11:37:15;;;;;;;0.20;0.20;;;;;;;22.68;34.32;100149.78;5014359;28;20388;-82
2023/10/20 11:39:42;;;;;;;1.33;1.23;;;;;;;22.81;34.32;100148.47;5012249;28;20423;-85
2023/10/20 11:42:14;;;;;;;2.00;1.50;;;;;;;22.79;34.05;100153.34;5011343;28;20504;-85
2023/10/20 11:44:42;;;;;;;0.50;0.50;;;;;;;22.77;34.31;100166.31;5012585;28;20431;-83
2023/10/20 11:47:10;;;;;;;0.85;0.70;;;;;;;22.83;33.72;100170.66;5009133;28;20400;-84
2023/10/20 11:49:35;;;;;;;0.60;0.60;;;;;;;22.91;33.63;100169.34;5009613;28;20395;-85
2023/10/20 11:52:07;;;;;;;0.83;0.50;;;;;;;23.03;33.51;100163.69;5009728;28;20388;-84
2023/10/20 11:54:33;;;;;;;0.90;0.43;;;;;;;23.13;33.39;100165.66;4994899;28;20407;-82
2023/10/20 11:57:01;;;;;;;0.30;0.30;;;;;;;23.23;33.51;100168.38;5013796;28;20395;-83
2023/10/20 11:59:30;;;;;;;1.70;1.00;;;;;;;23.18;33.53;100161.06;5011496;28;20399;-84
2023/10/20 12:01:56;;;;;;;0.88;0.43;;;;;;;23.33;33.50;100171.06;5012141;28;20415;-85
2023/10/20 12:04:21;;;;;;;1.00;0.80;;;;;;;23.27;33.80;100167.56;5012254;28;20388;-83
2023/10/20 12:06:47;;;;;;;0.30;0.30;;;;;;;23.35;33.49;100174.31;5011285;28;20404;-83
2023/10/20 12:09:24;;;;;;;0.45;0.45;;;;;;;23.32;33.34;100165.94;4994461;28;20404;-83
2023/10/20 12:11:53;;;;;;;0.40;0.30;;;;;;;23.42;33.09;100160.53;4995086;28;20404;-83
2023/10/20 12:14:22;;;;;;;0.57;0.57;;;;;;;23.52;32.96;100157.84;5012994;28;20961;-84